createdAt,value
2022-09-09T00:03:48.544Z,16.60
2022-09-09T00:09:01.926Z,16.50
2022-09-09T00:14:14.701Z,16.40
2022-09-09T00:19:24.462Z,16.40
2022-09-09T00:24:33.487Z,16.40
2022-09-09T00:29:43.959Z,16.40
2022-09-09T00:34:50.749Z,16.40
2022-09-09T00:39:58.733Z,16.30
2022-09-09T00:45:18.329Z,16.30
2022-09-09T00:50:36.157Z,16.20
2022-09-09T00:55:46.259Z,16.20
2022-09-09T01:00:53.974Z,16.10
2022-09-09T01:06:16.154Z,16.00
2022-09-09T01:11:24.688Z,16.00
2022-09-09T01:16:30.729Z,16.00
2022-09-09T01:21:43.554Z,16.00
2022-09-09T01:26:49.319Z,15.90
2022-09-09T01:31:57.349Z,15.90
2022-09-09T01:37:04.240Z,15.90
2022-09-09T01:42:11.303Z,15.90
2022-09-09T01:47:13.694Z,15.90
2022-09-09T01:52:16.318Z,15.90
2022-09-09T01:57:26.417Z,15.90
2022-09-09T02:02:33.507Z,15.90
2022-09-09T02:07:41.706Z,15.90
2022-09-09T02:12:49.867Z,15.90
2022-09-09T02:17:57.295Z,15.90
2022-09-09T02:23:02.340Z,15.90
2022-09-09T02:28:10.682Z,15.80
2022-09-09T02:33:15.377Z,15.80
2022-09-09T02:38:18.884Z,15.70
2022-09-09T02:43:23.289Z,15.60
2022-09-09T02:48:32.563Z,15.60
2022-09-09T02:53:42.817Z,15.50
2022-09-09T02:58:46.866Z,15.50
2022-09-09T03:03:49.307Z,15.50
2022-09-09T03:08:51.592Z,15.50
2022-09-09T03:13:56.470Z,15.50
2022-09-09T03:18:58.965Z,15.40
2022-09-09T03:24:02.025Z,15.40
2022-09-09T03:29:07.137Z,15.50
2022-09-09T03:34:09.760Z,15.50
2022-09-09T03:39:12.455Z,15.50
2022-09-09T03:44:16.559Z,15.60
2022-09-09T03:49:19.366Z,15.60
2022-09-09T03:54:22.029Z,15.60
2022-09-09T03:59:26.167Z,15.60
2022-09-09T04:04:29.113Z,15.70
2022-09-09T04:09:31.564Z,15.70
2022-09-09T04:14:47.180Z,15.80
2022-09-09T04:19:49.673Z,15.80
2022-09-09T04:24:51.991Z,15.80
2022-09-09T04:29:56.678Z,15.80
2022-09-09T04:34:59.183Z,15.80
2022-09-09T04:40:05.777Z,15.80
2022-09-09T04:45:11.128Z,15.80
2022-09-09T04:50:13.607Z,15.80
2022-09-09T04:55:16.170Z,15.80
2022-09-09T05:00:20.649Z,15.90
2022-09-09T05:05:24.746Z,15.90
2022-09-09T05:10:27.841Z,16.00
2022-09-09T05:15:32.060Z,16.00
2022-09-09T05:20:34.429Z,16.10
2022-09-09T05:25:37.040Z,16.20
2022-09-09T05:30:40.890Z,16.30
2022-09-09T05:35:43.602Z,16.30
2022-09-09T05:40:48.906Z,16.30
2022-09-09T05:46:03.996Z,16.40
2022-09-09T05:57:34.092Z,16.50
2022-09-09T06:02:38.524Z,16.50
2022-09-09T06:07:41.249Z,16.50
2022-09-09T06:12:44.217Z,16.50
2022-09-09T06:17:48.053Z,16.50
2022-09-09T06:22:50.438Z,16.50
2022-09-09T06:27:52.998Z,16.50
2022-09-09T06:33:01.440Z,16.50
2022-09-09T06:38:03.990Z,16.50
2022-09-09T06:43:06.752Z,16.50
2022-09-09T06:48:11.098Z,16.60
2022-09-09T06:53:17.070Z,16.60
2022-09-09T06:58:19.744Z,16.60
2022-09-09T07:03:23.932Z,16.60
2022-09-09T07:08:27.023Z,16.70
2022-09-09T07:13:29.679Z,16.80
2022-09-09T07:18:34.093Z,16.80
2022-09-09T07:23:36.709Z,17.00
2022-09-09T07:28:40.204Z,17.00
2022-09-09T07:33:45.267Z,17.20
2022-09-09T07:38:50.040Z,17.30
2022-09-09T07:44:06.101Z,17.40
2022-09-09T07:49:11.189Z,17.50
2022-09-09T07:54:15.951Z,17.60
2022-09-09T07:59:21.470Z,17.70
2022-09-09T08:04:29.890Z,17.80
2022-09-09T08:09:33.678Z,17.90
2022-09-09T08:15:05.539Z,18.10
2022-09-09T08:20:10.569Z,18.30
2022-09-09T08:25:13.643Z,18.40
2022-09-09T08:30:16.099Z,18.50
2022-09-09T08:35:21.350Z,18.60
2022-09-09T08:40:33.952Z,18.70
2022-09-09T08:45:51.740Z,19.00
2022-09-09T08:57:00.868Z,20.50
2022-09-09T09:02:16.487Z,21.80
2022-09-09T09:07:57.009Z,22.80
2022-09-09T09:25:17.552Z,24.60
2022-09-09T09:30:28.974Z,25.10
2022-09-09T09:35:35.170Z,25.40
2022-09-09T09:40:51.442Z,25.70
2022-09-09T09:46:14.340Z,25.90
2022-09-09T09:51:23.793Z,25.80
2022-09-09T09:56:31.592Z,25.80
2022-09-09T10:01:35.723Z,25.80
2022-09-09T10:06:38.856Z,26.10
2022-09-09T10:11:51.375Z,26.30
2022-09-09T10:17:07.816Z,26.30
2022-09-09T10:22:14.305Z,26.20
2022-09-09T10:27:26.109Z,26.00
2022-09-09T10:32:49.380Z,25.80
2022-09-09T10:38:07.055Z,25.70
2022-09-09T10:43:21.029Z,25.60
2022-09-09T10:48:43.646Z,25.40
2022-09-09T10:53:56.912Z,25.40
2022-09-09T10:59:09.164Z,25.80
2022-09-09T11:04:20.680Z,26.00
2022-09-09T11:09:28.570Z,25.90
2022-09-09T11:14:42.761Z,26.00
2022-09-09T11:19:46.422Z,26.30
2022-09-09T11:24:54.601Z,26.40
2022-09-09T11:30:55.530Z,26.10
2022-09-09T11:36:27.373Z,25.70
2022-09-09T11:41:37.410Z,25.20
2022-09-09T11:46:43.421Z,24.70
2022-09-09T11:51:46.102Z,24.20
2022-09-09T11:56:48.764Z,23.90
2022-09-09T12:01:58.091Z,24.00
2022-09-09T12:07:05.077Z,24.40
2022-09-09T12:12:28.367Z,24.70
2022-09-09T12:17:42.952Z,24.70
2022-09-09T12:23:22.911Z,24.80
2022-09-09T12:28:37.552Z,25.10
2022-09-09T12:33:42.174Z,25.50
2022-09-09T12:38:45.658Z,25.40
2022-09-09T12:43:48.757Z,25.10
2022-09-09T12:48:53.958Z,24.90
2022-09-09T12:53:58.924Z,24.50
2022-09-09T12:59:02.442Z,24.20
2022-09-09T13:04:22.116Z,24.20
2022-09-09T13:09:25.004Z,24.30
2022-09-09T13:14:32.671Z,24.20
2022-09-09T13:19:39.512Z,24.00
2022-09-09T13:24:41.706Z,23.90
2022-09-09T13:29:53.717Z,23.80
2022-09-09T13:35:07.048Z,23.60
2022-09-09T13:40:21.774Z,23.30
2022-09-09T13:45:29.113Z,23.00
2022-09-09T13:50:33.725Z,22.80
2022-09-09T13:55:38.697Z,22.60
2022-09-09T14:00:42.108Z,22.50
2022-09-09T14:05:48.479Z,22.60
2022-09-09T14:10:51.161Z,22.60
2022-09-09T14:15:54.232Z,22.60
2022-09-09T14:20:58.946Z,22.50
2022-09-09T14:26:01.693Z,22.50
2022-09-09T14:31:05.651Z,22.40
2022-09-09T14:36:12.011Z,22.40
2022-09-09T14:41:17.586Z,22.40
2022-09-09T14:46:21.624Z,22.30
2022-09-09T14:51:27.404Z,22.30
2022-09-09T14:56:32.708Z,22.20
2022-09-09T15:01:35.495Z,22.10
2022-09-09T15:06:39.796Z,22.00
2022-09-09T15:11:42.814Z,22.00
2022-09-09T15:16:45.313Z,21.90
2022-09-09T15:21:49.632Z,21.80
2022-09-09T15:26:52.662Z,21.70
2022-09-09T15:31:56.571Z,21.60
2022-09-09T15:37:00.489Z,21.60
2022-09-09T15:42:06.637Z,21.40
2022-09-09T15:47:11.649Z,21.00
2022-09-09T15:52:22.726Z,20.60
2022-09-09T15:57:28.110Z,20.40
2022-09-09T16:02:42.526Z,20.30
2022-09-09T16:07:50.180Z,20.20
2022-09-09T16:12:59.203Z,20.20
2022-09-09T16:18:02.137Z,20.20
2022-09-09T16:23:09.298Z,20.30
2022-09-09T16:28:12.698Z,20.40
2022-09-09T16:33:21.685Z,20.50
2022-09-09T16:38:32.714Z,20.50
2022-09-09T16:43:41.664Z,20.60
2022-09-09T16:48:52.558Z,20.50
2022-09-09T16:54:00.973Z,20.30
2022-09-09T16:59:06.102Z,20.20
2022-09-09T17:04:12.935Z,20.10
2022-09-09T17:09:25.503Z,20.00
2022-09-09T17:14:35.168Z,19.80
2022-09-09T17:19:41.166Z,19.70
2022-09-09T17:25:11.394Z,19.60
2022-09-09T17:30:28.799Z,19.60
2022-09-09T17:38:37.924Z,19.60
2022-09-09T17:43:41.872Z,19.40
2022-09-09T17:48:46.125Z,19.40
2022-09-09T17:53:52.091Z,19.40
2022-09-09T17:58:55.098Z,19.30
2022-09-09T18:04:00.437Z,19.30
2022-09-09T18:09:08.226Z,19.20
2022-09-09T18:14:16.026Z,19.10
2022-09-09T18:19:24.048Z,19.00
2022-09-09T18:30:40.193Z,19.00
2022-09-09T18:35:43.410Z,18.90
2022-09-09T18:40:46.575Z,18.80
2022-09-09T18:45:51.038Z,18.80
2022-09-09T18:50:54.903Z,18.70
2022-09-09T18:56:02.363Z,18.60
2022-09-09T19:01:10.803Z,18.50
2022-09-09T19:06:16.223Z,18.40
2022-09-09T19:11:21.019Z,18.40
2022-09-09T19:16:26.671Z,18.30
2022-09-09T19:21:38.115Z,18.30
2022-09-09T19:26:42.942Z,18.20
2022-09-09T19:32:02.200Z,18.10
2022-09-09T19:37:11.729Z,18.00
2022-09-09T19:42:18.110Z,17.90
2022-09-09T19:47:22.455Z,17.90
2022-09-09T19:52:25.092Z,17.80
2022-09-09T19:57:29.348Z,17.70
2022-09-09T20:02:33.557Z,17.60
2022-09-09T20:07:36.399Z,17.60
2022-09-09T20:12:40.070Z,17.50
2022-09-09T20:17:44.848Z,17.50
2022-09-09T20:22:52.080Z,17.40
2022-09-09T20:27:58.224Z,17.40
2022-09-09T20:33:05.192Z,17.40
2022-09-09T20:38:07.840Z,17.30
2022-09-09T20:43:12.203Z,17.30
2022-09-09T20:48:17.498Z,17.30
2022-09-09T20:53:21.243Z,17.30
2022-09-09T20:58:23.992Z,17.20
2022-09-09T21:03:28.952Z,17.10
2022-09-09T21:08:31.758Z,17.10
2022-09-09T21:13:39.119Z,17.10
2022-09-09T21:18:43.462Z,17.00
2022-09-09T21:23:46.600Z,17.00
2022-09-09T21:28:52.152Z,17.00
2022-09-09T21:33:56.746Z,17.00
2022-09-09T21:39:00.063Z,17.00
2022-09-09T21:44:03.317Z,17.10
2022-09-09T21:49:07.464Z,17.10
2022-09-09T21:54:10.264Z,17.20
2022-09-09T21:59:13.050Z,17.20
2022-09-09T22:04:17.374Z,17.20
2022-09-09T22:09:19.978Z,17.20
2022-09-09T22:14:23.384Z,17.30
2022-09-09T22:19:27.769Z,17.30
2022-09-09T22:24:30.581Z,17.20
2022-09-09T22:29:33.168Z,17.20
2022-09-09T22:34:37.347Z,17.20
2022-09-09T22:39:40.242Z,17.20
2022-09-09T22:44:42.759Z,17.10
2022-09-09T22:49:47.207Z,17.10
2022-09-09T22:54:51.007Z,17.10
2022-09-09T22:59:53.568Z,17.00
2022-09-09T23:04:57.511Z,17.00
2022-09-09T23:10:00.117Z,17.00
2022-09-09T23:15:02.719Z,17.00
2022-09-09T23:20:09.554Z,17.00
2022-09-09T23:25:12.153Z,16.90
2022-09-09T23:30:15.233Z,16.90
2022-09-09T23:35:19.748Z,16.80
2022-09-09T23:40:22.813Z,16.90
2022-09-09T23:45:25.486Z,16.90
2022-09-09T23:50:29.782Z,16.80
2022-09-09T23:55:32.289Z,16.80
